Vega, TX (79092)

5:04 AM CDT on April 29, 2017 (GMT -0500)
Vega TX | | Change Station

Elev 4052 ft 35.25 °N, 102.43 °W | Updated 14 seconds ago

Overcast
Overcast
43.0 °F
Feels Like 35 °F
N
15.7
Wind Variable Wind from NNE
Gusts 17.5 mph

Today
High -- | Low -- °F
--% Chance of Precip.
Yesterday
High -- | Low -- °F
Precip. -- in
Pressure 29.75 in
Visibility 10.0 miles
Clouds Overcast 1000 ft
Windchill 35 °F
Dew Point 43 °F
Humidity 99%
Rainfall 0.09 in
Snow Depth Not available.
7:00 AM 8:34 PM
Waxing Crescent, 12% visible
METAR KHRX 290955Z AUTO 01017G30KT 10SM OVC010 07/06 A2975 RMK AO2 T00700060
Pressure 29.75 in
Visibility 10.0 miles
Clouds Overcast 1000 ft
Windchill 35 °F
Dew Point 43 °F
Humidity 99%
Rainfall 0.09 in
Snow Depth Not available.
7:00 AM 8:34 PM
Waxing Crescent, 12% visible
METAR KHRX 290955Z AUTO 01017G30KT 10SM OVC010 07/06 A2975 RMK AO2 T00700060

Get Severe Weather Alerts

Thanks for signing up!

Be on the lookout for a verification email in your inbox.

You'll start receiving the daily forecast at 8 AM.

×

10-Day Weather Forecast

Almanac

Astronomy

Apr. 29, 2017 Rise Set
Actual Time
Civil Twilight
Nautical Twilight
Astronomical Twilight
Moon
Length of Visible Light
Length of Day
Tomorrow will be .
, % of the Moon is Illuminated

Today's Extremes

State Highs State Lows

Community

WunderPhotos

WunderBlog® & News

Nearby

Air Quality

  Air Quality AQ Index Pollutant
Not available.

Snow Depth

Station Depth Elevation

Earthquake Activity

City Distance Mag. Time & Date
Minimum magnitude displayed is 2.5.

Coastal Water Temperatures

Place Temperature

Stations

Nearby Weather Stations

Station Location Temp. Windchill Dew Point Humidity Wind Precip. Elev Updated Type
                   

Watches & Warnings

There are currently no watches in effect.